Grassy Lake, Canada
Current Conditions -  °F | °C
As of 12:00 AM on Sunday 26 Oct 2014 (Local Time) from CYXH Reporting Station
Clear Clear  
Wind Chill: 39°   Ceiling: Unl
Heat Index: 39°   Visibility: 9mi
Dew Point: 36°   Wind: 3mph
Humidity: 87%   Direction: 30°NNE
Pressure: 29.5"   Gusts: NA
Location:  49.83°N, 111.7°W
Report Text: CYXH 260600Z AUTO 03003KT 020V090 9SM CLR 04/02 A2950 RMK PRESFR SLP000
Loading
Personal Weather Stations






























Interactive Weather Map
Tropical Storm Tracking
New forecast layout! Learn more

10-Day Weather Forecast

Advertisements
Track Severe Weather on mobile